Lunderskov, Denmark
Current Conditions -  °F | °C
As of 4:20 PM on Thursday 23 Oct 2014 (Local Time) from EKSP Reporting Station
Light Rain Light Rain  
Wind Chill: 52°   Ceiling: 600
Heat Index: 52°   Visibility: 2.5mi
Dew Point: 52°   Wind: 13mph
Humidity: 100%   Direction: 190°S
Pressure: 30.09"   Gusts: NA
Location:  55.48°N, 9.3°E
Report Text: EKSP 231420Z 19011KT 4000 -RA BKN006 11/11 Q1019
Loading
Personal Weather Stations






























Interactive Weather Map
Tropical Storm Tracking
New forecast layout! Learn more

10-Day Weather Forecast

Advertisements
Track Severe Weather on mobile